Etusivu
METAR-TAF:

METAR-TAF

Lentoasemat :

El Salvador, El Salvador

Leveyspiiri: 13-26N, Pituuspiiri: 089-03W, korkeus merenpinnasta: 25 m

Tämänhetkinen sää

Tämä raportti tehtiin 15 minuuttia sitten, kello 09.50 UTC
Tuuli 9 kn koillisesta
Lämpötila 23°C
Kosteus 61%
Ilmanpaine 1014 hPa
Näkyvyys 10 km tai enemmän
ei pilviä alle 1500 m:ssä eikä cumulonimbus-pilviä

METAR: MSLP 160950Z 04009KT CAVOK 23/15 Q1013 A2993 NOSIG

Aika: 04:05 (10:05 UTC)

Sääennuste

Tämä raportti tehtiin 12 tuntia ja 40 minuuttia sitten, kello 21.25 UTC
Ennuste voimassa 16. päivästä klo 00 UTC - 16. päivään klo 24 UTC
Tuuli 15 kn pohjoisesta/koillisesta puuskistuen 25 kn:hen
Näkyvyys 10 km tai enemmän
ei pilviä alle 1500 m:ssä eikä cumulonimbus-pilviä
Ajoittain
16. päivästä klo 18 UTC - 16. päivään klo 24 UTC
Näkyvyys 10 km tai enemmän
Hajanaisia pilviä 6000 ft:n korkeudessa

TAF: MSLP 152125Z 1600/1624 02015G25KT CAVOK TX34/1618Z TN20/1610Z TEMPO 1618/1624 9999 SCT060

Säähavainnot ja -ennusteet yli 4000 lentoasemalta (METAR- ja TAF-raportit).

Käytössä olevat sääasemat on merkitty karttaan keltaisilla ja punaisilla pisteillä.

Aseta hiiri pisteen päälle nähdäksesi sääaseman nimen.

Klikkaa sitten nähdäksesi säähavainnot ja -ennusteet.

Kartan vaihtaminen: klikkaa mustalla rastilla varustettuja vihreitä pisteitä, niin voit zoomata sisään; viivalla varustettua vihreää pistettä, niin voit zoomata ulos tai vihreitä nuolia, niin pääset viereisille kartoille.


METAR-TAF: